Time;durP1;ratioP1;P1;durP2;ratioP2;P2;SDS_P1;SDS_P2;PMS_P1;PMS_P2;Temp;Humidity;BMP_temperature;BMP_pressure;BME280_temperature;BME280_humidity;BME280_pressure;Samples;Min_cycle;Max_cycle;Signal;HPM_P1;HPM_P2
2022/03/14 00:00:11;;;;;;;;;;;10.20;55.70;;;;;;5028246;28;19936;-69
2022/03/14 00:02:39;;;;;;;;;;;10.20;55.70;;;;;;5023488;28;19979;-69
2022/03/14 00:05:06;;;;;;;;;;;10.20;55.80;;;;;;5028475;28;20036;-69
2022/03/14 00:07:35;;;;;;;;;;;10.10;55.80;;;;;;5027159;28;19929;-69
2022/03/14 00:10:02;;;;;;;;;;;10.10;55.80;;;;;;5027302;28;20326;-69
2022/03/14 00:12:31;;;;;;;;;;;10.10;55.90;;;;;;5026599;28;20086;-69
2022/03/14 00:14:58;;;;;;;;;;;10.10;55.90;;;;;;5027668;28;19928;-69
2022/03/14 00:17:25;;;;;;;;;;;10.10;56.00;;;;;;5027227;28;20467;-69
2022/03/14 00:19:53;;;;;;;;;;;10.10;56.00;;;;;;5025057;28;19929;-69
2022/03/14 00:22:22;;;;;;;;;;;10.10;56.00;;;;;;5024690;28;19928;-69
2022/03/14 00:24:48;;;;;;;;;;;10.10;56.00;;;;;;5028075;28;19943;-70
2022/03/14 00:27:15;;;;;;;;;;;10.10;56.10;;;;;;5024720;28;19947;-70
2022/03/14 00:29:42;;;;;;;;;;;10.10;56.20;;;;;;5024126;28;19968;-69
2022/03/14 00:32:08;;;;;;;;;;;10.10;56.20;;;;;;5023978;28;19933;-69
2022/03/14 00:34:35;;;;;;;;;;;10.10;56.10;;;;;;5025414;28;19936;-69
2022/03/14 00:37:03;;;;;;;;;;;10.10;56.10;;;;;;5028180;28;19933;-69
2022/03/14 00:39:30;;;;;;;;;;;10.10;56.10;;;;;;5023925;28;19967;-67
2022/03/14 00:41:57;;;;;;;;;;;10.10;56.00;;;;;;5020459;28;19945;-69
2022/03/14 00:44:24;;;;;;;;;;;10.00;56.00;;;;;;5023749;28;19929;-70
2022/03/14 00:46:51;;;;;;;;;;;10.10;56.00;;;;;;5022701;28;19968;-69
2022/03/14 00:49:17;;;;;;;;;;;10.10;55.90;;;;;;5020262;28;19925;-69
2022/03/14 00:51:44;;;;;;;;;;;10.10;55.90;;;;;;5021325;28;19936;-69
2022/03/14 00:54:12;;;;;;;;;;;10.00;55.90;;;;;;5025325;28;19937;-69
2022/03/14 00:56:38;;;;;;;;;;;10.10;56.20;;;;;;5022631;28;19933;-69
2022/03/14 00:59:05;;;;;;;;;;;10.10;56.50;;;;;;5026565;28;19929;-69
2022/03/14 01:01:31;;;;;;;;;;;10.10;56.70;;;;;;5026303;28;19933;-69
2022/03/14 01:03:59;;;;;;;;;;;10.00;57.40;;;;;;5026302;28;19939;-69
2022/03/14 01:06:25;;;;;;;;;;;10.00;57.60;;;;;;5025596;28;20547;-69
2022/03/14 01:08:52;;;;;;;;;;;10.00;57.80;;;;;;5022761;28;20336;-69
2022/03/14 01:11:20;;;;;;;;;;;10.10;58.20;;;;;;5025090;28;19933;-69
2022/03/14 01:13:46;;;;;;;;;;;10.00;59.20;;;;;;5024054;28;19929;-69
2022/03/14 01:16:13;;;;;;;;;;;10.10;59.20;;;;;;5023800;28;19929;-69
2022/03/14 01:18:40;;;;;;;;;;;10.10;59.20;;;;;;5018691;28;19929;-69
2022/03/14 01:21:07;;;;;;;;;;;10.00;59.40;;;;;;5024671;28;20416;-69
2022/03/14 01:23:34;;;;;;;;;;;10.00;59.80;;;;;;5025509;28;20428;-69
2022/03/14 01:26:00;;;;;;;;;;;10.00;60.50;;;;;;5028963;28;19929;-69
2022/03/14 01:28:28;;;;;;;;;;;10.10;61.30;;;;;;5023204;28;19936;-69
2022/03/14 01:30:55;;;;;;;;;;;10.10;62.00;;;;;;5023778;28;19929;-69
2022/03/14 01:33:22;;;;;;;;;;;10.10;62.70;;;;;;5022119;28;20010;-69
2022/03/14 01:35:48;;;;;;;;;;;10.10;63.30;;;;;;5022660;28;20716;-69
2022/03/14 01:38:15;;;;;;;;;;;10.10;65.20;;;;;;5023570;28;20428;-68
2022/03/14 01:40:41;;;;;;;;;;;10.10;67.20;;;;;;5024237;28;19928;-69
2022/03/14 01:43:08;;;;;;;;;;;10.10;68.10;;;;;;5024656;28;20325;-69
2022/03/14 01:45:36;;;;;;;;;;;10.10;68.80;;;;;;5028147;28;20392;-69
2022/03/14 01:48:05;;;;;;;;;;;10.10;69.70;;;;;;5046473;28;20027;-68
2022/03/14 01:50:32;;;;;;;;;;;10.00;70.00;;;;;;5047352;28;19951;-68
2022/03/14 01:52:59;;;;;;;;;;;10.00;70.60;;;;;;5046629;28;19932;-68
2022/03/14 01:55:25;;;;;;;;;;;10.10;70.30;;;;;;5045216;28;19929;-68
2022/03/14 01:57:52;;;;;;;;;;;10.00;71.10;;;;;;5041488;28;19998;-68
2022/03/14 02:00:19;;;;;;;;;;;10.00;71.70;;;;;;5043758;28;19935;-69
2022/03/14 02:02:48;;;;;;;;;;;10.00;72.70;;;;;;5047301;28;19932;-68
2022/03/14 02:05:15;;;;;;;;;;;10.00;73.10;;;;;;5049052;28;19929;-70
2022/03/14 02:07:41;;;;;;;;;;;10.00;73.90;;;;;;5053086;28;20360;-68
2022/03/14 02:10:09;;;;;;;;;;;9.90;73.70;;;;;;5048571;28;19936;-69
2022/03/14 02:12:35;;;;;;;;;;;9.90;74.60;;;;;;5045530;28;20453;-68
2022/03/14 02:15:02;;;;;;;;;;;9.90;74.90;;;;;;5050154;28;20244;-69
2022/03/14 02:17:29;;;;;;;;;;;9.90;75.50;;;;;;5050416;28;19933;-68
2022/03/14 02:20:00;;;;;;;;;;;9.80;75.50;;;;;;5044662;28;19936;-68
2022/03/14 02:22:26;;;;;;;;;;;9.80;75.90;;;;;;5047795;28;19941;-68
2022/03/14 02:24:53;;;;;;;;;;;9.80;76.10;;;;;;5051398;28;19933;-68
2022/03/14 02:27:19;;;;;;;;;;;9.80;76.40;;;;;;5048601;28;19936;-68
2022/03/14 02:29:46;;;;;;;;;;;9.80;77.20;;;;;;5051570;28;19936;-69
2022/03/14 02:32:13;;;;;;;;;;;9.70;77.30;;;;;;5048698;28;19929;-68
2022/03/14 02:34:39;;;;;;;;;;;9.70;77.80;;;;;;5046481;28;19929;-69
2022/03/14 02:37:07;;;;;;;;;;;9.70;78.00;;;;;;5046476;28;19937;-68
2022/03/14 02:39:34;;;;;;;;;;;9.70;77.80;;;;;;5041656;28;19940;-68
2022/03/14 02:42:01;;;;;;;;;;;9.60;78.20;;;;;;5043017;28;19929;-68
2022/03/14 02:44:28;;;;;;;;;;;9.70;78.30;;;;;;5044757;28;19977;-69
2022/03/14 02:46:55;;;;;;;;;;;9.60;78.20;;;;;;5042939;28;19932;-68
2022/03/14 02:49:21;;;;;;;;;;;9.60;78.30;;;;;;5043923;28;19928;-68
2022/03/14 02:51:48;;;;;;;;;;;9.60;78.10;;;;;;5046496;28;19929;-68
2022/03/14 02:54:16;;;;;;;;;;;9.50;78.30;;;;;;5050610;28;19928;-69
2022/03/14 02:56:42;;;;;;;;;;;9.50;78.40;;;;;;5046141;28;19940;-69
2022/03/14 02:59:09;;;;;;;;;;;9.50;78.70;;;;;;5051463;28;19967;-68
2022/03/14 03:01:36;;;;;;;;;;;9.50;78.60;;;;;;5047084;28;19928;-69
2022/03/14 03:04:04;;;;;;;;;;;9.50;78.60;;;;;;5048670;28;19936;-68
2022/03/14 03:06:33;;;;;;;;;;;9.50;78.60;;;;;;5054632;28;20005;-68
2022/03/14 03:09:03;;;;;;;;;;;9.50;78.90;;;;;;5048321;28;19940;-68
2022/03/14 03:11:31;;;;;;;;;;;9.40;78.90;;;;;;5047209;28;19952;-68
2022/03/14 03:13:59;;;;;;;;;;;9.40;78.90;;;;;;5045071;28;19939;-66
2022/03/14 03:16:26;;;;;;;;;;;9.40;79.20;;;;;;5051698;28;19928;-66
2022/03/14 03:18:53;;;;;;;;;;;9.40;79.40;;;;;;5046402;28;19952;-66
2022/03/14 03:21:19;;;;;;;;;;;9.40;79.50;;;;;;5050905;28;19939;-66
2022/03/14 03:23:46;;;;;;;;;;;9.30;79.70;;;;;;5052485;28;19940;-67
2022/03/14 03:26:13;;;;;;;;;;;9.30;79.80;;;;;;5046480;28;20019;-66
2022/03/14 03:28:40;;;;;;;;;;;9.30;79.90;;;;;;5045754;28;20018;-66
2022/03/14 03:31:08;;;;;;;;;;;9.30;80.00;;;;;;5049030;28;19928;-66
2022/03/14 03:33:35;;;;;;;;;;;9.30;80.10;;;;;;5049389;28;19932;-66
2022/03/14 03:36:01;;;;;;;;;;;9.30;80.30;;;;;;5047803;28;20396;-66
2022/03/14 03:38:28;;;;;;;;;;;9.30;80.40;;;;;;5044534;28;19936;-66
2022/03/14 03:40:54;;;;;;;;;;;9.20;80.30;;;;;;5045738;28;19948;-66
2022/03/14 03:43:21;;;;;;;;;;;9.20;80.30;;;;;;5045490;28;19929;-66
2022/03/14 03:45:49;;;;;;;;;;;9.20;80.50;;;;;;5046893;28;19929;-67
2022/03/14 03:48:16;;;;;;;;;;;9.20;80.60;;;;;;5045148;28;19955;-67
2022/03/14 03:50:42;;;;;;;;;;;9.20;81.00;;;;;;5051422;28;20015;-66
2022/03/14 03:53:09;;;;;;;;;;;9.10;81.10;;;;;;5045735;28;19932;-66
2022/03/14 03:55:35;;;;;;;;;;;9.10;81.60;;;;;;5047900;28;19933;-66
2022/03/14 03:58:02;;;;;;;;;;;9.10;81.90;;;;;;5047444;28;19952;-67
2022/03/14 04:00:29;;;;;;;;;;;9.10;82.10;;;;;;5044042;28;19929;-66
2022/03/14 04:02:57;;;;;;;;;;;9.10;82.20;;;;;;5048002;28;19944;-66
2022/03/14 04:05:25;;;;;;;;;;;9.00;82.20;;;;;;5048584;28;19932;-66
2022/03/14 04:07:53;;;;;;;;;;;9.00;82.20;;;;;;5046309;28;19935;-66
2022/03/14 04:10:20;;;;;;;;;;;9.00;82.60;;;;;;5046426;28;19933;-67
2022/03/14 04:12:47;;;;;;;;;;;9.00;82.90;;;;;;5045006;28;19936;-67
2022/03/14 04:15:15;;;;;;;;;;;9.00;83.10;;;;;;5048287;28;19928;-67
2022/03/14 04:17:42;;;;;;;;;;;9.00;83.30;;;;;;5044183;28;19928;-67
2022/03/14 04:20:11;;;;;;;;;;;9.00;83.30;;;;;;5042816;28;19971;-67
2022/03/14 04:22:38;;;;;;;;;;;9.00;83.70;;;;;;5046775;28;20042;-68
2022/03/14 04:25:06;;;;;;;;;;;9.00;84.00;;;;;;5045343;28;20014;-67
2022/03/14 04:27:33;;;;;;;;;;;8.90;84.90;;;;;;5046822;28;20015;-67
2022/03/14 04:29:59;;;;;;;;;;;8.90;84.20;;;;;;5045838;28;19933;-67
2022/03/14 04:32:26;;;;;;;;;;;8.90;84.10;;;;;;5045922;28;19932;-68
2022/03/14 04:34:53;;;;;;;;;;;8.90;84.10;;;;;;5046948;28;19935;-68
2022/03/14 04:37:21;;;;;;;;;;;8.90;84.40;;;;;;5046006;28;19939;-67
2022/03/14 04:39:47;;;;;;;;;;;8.90;84.50;;;;;;5044801;28;20613;-67
2022/03/14 04:42:15;;;;;;;;;;;8.90;84.80;;;;;;5048704;28;19932;-68
2022/03/14 04:44:42;;;;;;;;;;;8.80;84.90;;;;;;5047374;28;20058;-67
2022/03/14 04:47:10;;;;;;;;;;;8.80;85.00;;;;;;5047519;28;19928;-67
2022/03/14 04:49:36;;;;;;;;;;;8.80;84.90;;;;;;5047061;28;19928;-68
2022/03/14 04:52:04;;;;;;;;;;;8.80;84.70;;;;;;5046033;28;19929;-68
2022/03/14 04:54:32;;;;;;;;;;;8.90;84.70;;;;;;5050981;28;19932;-67
2022/03/14 04:56:59;;;;;;;;;;;8.80;84.30;;;;;;5044945;28;20549;-67
2022/03/14 04:59:25;;;;;;;;;;;8.80;84.40;;;;;;5048578;28;19929;-67
2022/03/14 05:01:52;;;;;;;;;;;8.80;84.80;;;;;;5043368;28;19936;-67
2022/03/14 05:04:18;;;;;;;;;;;8.80;85.10;;;;;;5046488;28;19932;-67
2022/03/14 05:06:45;;;;;;;;;;;8.80;85.40;;;;;;5041910;28;19960;-68
2022/03/14 05:09:12;;;;;;;;;;;8.80;85.60;;;;;;5042045;28;19929;-68
2022/03/14 05:11:40;;;;;;;;;;;8.80;85.80;;;;;;5043241;28;19991;-68
2022/03/14 05:14:07;;;;;;;;;;;8.80;85.80;;;;;;5039442;28;20228;-67
2022/03/14 05:16:34;;;;;;;;;;;8.80;85.90;;;;;;5041736;28;20028;-68
2022/03/14 05:19:00;;;;;;;;;;;8.70;85.90;;;;;;5039718;28;19974;-67
2022/03/14 05:21:27;;;;;;;;;;;8.70;86.20;;;;;;5041209;28;19929;-67
2022/03/14 05:23:53;;;;;;;;;;;8.70;86.30;;;;;;5049060;28;19933;-68
2022/03/14 05:26:20;;;;;;;;;;;8.70;86.30;;;;;;5045866;28;20411;-67
2022/03/14 05:28:48;;;;;;;;;;;8.70;86.30;;;;;;5046550;28;20151;-67
2022/03/14 05:31:15;;;;;;;;;;;8.70;86.30;;;;;;5043339;28;19929;-67
2022/03/14 05:33:42;;;;;;;;;;;8.70;86.30;;;;;;5043097;28;20393;-67
2022/03/14 05:36:08;;;;;;;;;;;8.70;86.40;;;;;;5045830;28;19924;-68
2022/03/14 05:38:35;;;;;;;;;;;8.70;86.30;;;;;;5048698;28;20400;-68
2022/03/14 05:41:01;;;;;;;;;;;8.70;86.40;;;;;;5049062;28;20309;-67
2022/03/14 05:43:29;;;;;;;;;;;8.70;86.50;;;;;;5047849;28;20412;-67
2022/03/14 05:45:57;;;;;;;;;;;8.60;86.40;;;;;;5050975;28;19925;-68
2022/03/14 05:48:23;;;;;;;;;;;8.70;86.70;;;;;;5050220;28;19925;-67
2022/03/14 05:50:50;;;;;;;;;;;8.60;86.70;;;;;;5049366;28;19937;-67
2022/03/14 05:53:16;;;;;;;;;;;8.60;86.60;;;;;;5046703;28;20161;-67
2022/03/14 05:55:43;;;;;;;;;;;8.60;86.80;;;;;;5052230;28;20361;-66
2022/03/14 05:58:10;;;;;;;;;;;8.60;87.00;;;;;;5053908;28;20339;-68
2022/03/14 06:00:36;;;;;;;;;;;8.60;87.10;;;;;;5049464;28;19935;-67
2022/03/14 06:03:04;;;;;;;;;;;8.60;87.80;;;;;;5045746;28;20075;-68
2022/03/14 06:05:31;;;;;;;;;;;8.60;87.00;;;;;;5049965;28;20491;-67
2022/03/14 06:07:57;;;;;;;;;;;8.60;87.10;;;;;;5047298;28;19935;-67
2022/03/14 06:10:25;;;;;;;;;;;8.60;87.20;;;;;;5054060;28;20540;-68
2022/03/14 06:12:52;;;;;;;;;;;8.60;87.30;;;;;;5048985;28;19932;-67
2022/03/14 06:15:18;;;;;;;;;;;8.50;87.30;;;;;;5048787;28;19929;-67
2022/03/14 06:17:45;;;;;;;;;;;8.50;87.40;;;;;;5049866;28;19932;-66
2022/03/14 06:20:14;;;;;;;;;;;8.60;87.40;;;;;;5049500;28;19932;-68
2022/03/14 06:22:41;;;;;;;;;;;8.50;87.40;;;;;;5048877;28;19929;-67
2022/03/14 06:25:08;;;;;;;;;;;8.50;87.40;;;;;;5046188;28;19925;-65
2022/03/14 06:27:35;;;;;;;;;;;8.50;87.50;;;;;;5048586;28;19964;-67
2022/03/14 06:30:02;;;;;;;;;;;8.50;87.60;;;;;;5049369;28;19928;-67
2022/03/14 06:32:33;;;;;;;;;;;8.50;87.50;;;;;;5046931;28;19959;-67
2022/03/14 06:35:00;;;;;;;;;;;8.50;87.50;;;;;;5046057;28;19956;-67
2022/03/14 06:37:28;;;;;;;;;;;8.40;87.40;;;;;;5046431;28;20028;-68
2022/03/14 06:39:54;;;;;;;;;;;8.50;87.40;;;;;;5048517;28;19936;-67
2022/03/14 06:42:22;;;;;;;;;;;8.50;87.40;;;;;;5049654;28;19935;-68
2022/03/14 06:44:49;;;;;;;;;;;8.50;87.30;;;;;;5049225;28;19955;-66
2022/03/14 06:47:17;;;;;;;;;;;8.50;87.10;;;;;;5046785;28;19960;-67
2022/03/14 06:49:44;;;;;;;;;;;8.50;87.70;;;;;;5044715;28;20023;-66
2022/03/14 06:52:11;;;;;;;;;;;8.50;88.00;;;;;;5048613;28;19932;-67
2022/03/14 06:54:39;;;;;;;;;;;8.50;88.10;;;;;;5053614;28;19928;-67
2022/03/14 06:57:06;;;;;;;;;;;8.50;87.90;;;;;;5047116;28;19933;-67
2022/03/14 06:59:33;;;;;;;;;;;8.50;87.90;;;;;;5052387;28;19929;-67
2022/03/14 07:01:59;;;;;;;;;;;8.40;88.00;;;;;;5043204;28;20044;-67
2022/03/14 07:04:27;;;;;;;;;;;8.40;88.10;;;;;;5046094;28;19928;-68
2022/03/14 07:06:53;;;;;;;;;;;8.50;88.30;;;;;;5045484;28;19983;-67
2022/03/14 07:09:20;;;;;;;;;;;8.40;88.20;;;;;;5045195;28;20400;-67
2022/03/14 07:11:51;;;;;;;;;;;8.50;88.00;;;;;;5047439;28;19936;-67
2022/03/14 07:14:19;;;;;;;;;;;8.40;87.70;;;;;;5045666;28;19936;-67
2022/03/14 07:16:45;;;;;;;;;;;8.40;87.60;;;;;;5052098;28;19929;-67
2022/03/14 07:19:12;;;;;;;;;;;8.40;87.40;;;;;;5045574;28;19932;-67
2022/03/14 07:21:38;;;;;;;;;;;8.40;87.40;;;;;;5047526;28;20380;-66
2022/03/14 07:24:05;;;;;;;;;;;8.40;87.30;;;;;;5046123;28;19936;-67
2022/03/14 07:26:32;;;;;;;;;;;8.40;87.10;;;;;;5041758;28;19933;-71
2022/03/14 07:29:00;;;;;;;;;;;8.40;86.90;;;;;;5046737;28;19935;-72
2022/03/14 07:31:26;;;;;;;;;;;8.40;86.80;;;;;;5048321;28;20016;-72
2022/03/14 07:33:53;;;;;;;;;;;8.40;87.60;;;;;;5050253;28;20026;-72
2022/03/14 07:36:20;;;;;;;;;;;8.40;86.90;;;;;;5044377;28;19937;-73
2022/03/14 07:38:47;;;;;;;;;;;8.40;86.70;;;;;;5044114;28;19968;-72
2022/03/14 07:41:13;;;;;;;;;;;8.40;86.60;;;;;;5043395;28;19940;-73
2022/03/14 07:43:40;;;;;;;;;;;8.40;86.50;;;;;;5045883;28;20020;-72
2022/03/14 07:46:08;;;;;;;;;;;8.40;86.50;;;;;;5048475;28;19954;-72
2022/03/14 07:48:35;;;;;;;;;;;8.40;87.00;;;;;;5045199;28;20015;-73
2022/03/14 07:51:03;;;;;;;;;;;8.40;86.30;;;;;;5044719;28;20011;-72
2022/03/14 07:53:29;;;;;;;;;;;8.40;86.30;;;;;;5042580;28;19929;-72
2022/03/14 07:55:56;;;;;;;;;;;8.40;86.50;;;;;;5046196;28;20274;-72
2022/03/14 07:58:22;;;;;;;;;;;8.40;86.60;;;;;;5044655;28;19932;-73
2022/03/14 08:00:49;;;;;;;;;;;8.40;86.70;;;;;;5050721;28;20205;-73
2022/03/14 08:03:19;;;;;;;;;;;8.40;86.80;;;;;;5046498;28;20396;-70
2022/03/14 08:05:47;;;;;;;;;;;8.40;86.80;;;;;;5043225;28;19929;-73
2022/03/14 08:08:15;;;;;;;;;;;8.40;86.60;;;;;;5046873;28;20383;-71
2022/03/14 08:10:42;;;;;;;;;;;8.50;86.50;;;;;;5047688;28;20017;-72
2022/03/14 08:13:08;;;;;;;;;;;8.50;86.40;;;;;;5042860;28;20357;-72
2022/03/14 08:15:35;;;;;;;;;;;8.50;86.40;;;;;;5051462;28;19939;-72
2022/03/14 08:18:03;;;;;;;;;;;8.50;86.40;;;;;;5043014;28;20436;-73
2022/03/14 08:20:31;;;;;;;;;;;8.50;86.40;;;;;;5047450;28;20592;-72
2022/03/14 08:22:59;;;;;;;;;;;8.50;86.20;;;;;;5046639;28;20435;-71
2022/03/14 08:25:26;;;;;;;;;;;8.50;86.00;;;;;;5047328;28;19964;-72
2022/03/14 08:27:53;;;;;;;;;;;8.60;85.80;;;;;;5044650;28;19933;-72
2022/03/14 08:30:20;;;;;;;;;;;8.60;85.50;;;;;;5045232;28;20449;-73
2022/03/14 08:32:47;;;;;;;;;;;8.60;85.40;;;;;;5036711;28;20023;-71
2022/03/14 08:35:16;;;;;;;;;;;8.60;85.20;;;;;;5044338;28;19935;-73
2022/03/14 08:37:45;;;;;;;;;;;8.60;85.10;;;;;;5046191;28;19932;-73
2022/03/14 08:40:13;;;;;;;;;;;8.60;84.80;;;;;;5043091;28;19983;-73
2022/03/14 08:42:40;;;;;;;;;;;8.70;84.70;;;;;;5043050;28;20020;-72
2022/03/14 08:45:08;;;;;;;;;;;8.70;84.60;;;;;;5050824;28;19933;-72
2022/03/14 08:47:35;;;;;;;;;;;8.70;84.50;;;;;;5045749;28;19983;-72
2022/03/14 08:50:02;;;;;;;;;;;8.70;84.40;;;;;;5044884;28;20315;-72
2022/03/14 08:52:29;;;;;;;;;;;8.80;84.40;;;;;;5045030;28;20015;-72
2022/03/14 08:54:57;;;;;;;;;;;8.80;84.20;;;;;;5044533;28;19933;-73
2022/03/14 08:57:23;;;;;;;;;;;8.80;83.90;;;;;;5042687;28;19929;-72
2022/03/14 08:59:50;;;;;;;;;;;8.80;83.70;;;;;;5041037;28;19929;-73
2022/03/14 09:02:17;;;;;;;;;;;8.80;83.50;;;;;;5042874;28;19935;-73
2022/03/14 09:04:43;;;;;;;;;;;8.90;83.40;;;;;;5044956;28;19960;-72
2022/03/14 09:07:10;;;;;;;;;;;8.90;83.20;;;;;;5044436;28;19928;-72
2022/03/14 09:09:37;;;;;;;;;;;8.90;83.00;;;;;;5045171;28;20454;-72
2022/03/14 09:12:05;;;;;;;;;;;9.00;82.90;;;;;;5053861;28;19928;-73
2022/03/14 09:14:32;;;;;;;;;;;9.00;82.80;;;;;;5052406;28;19941;-72
2022/03/14 09:16:59;;;;;;;;;;;9.00;82.50;;;;;;5053209;28;20014;-71
2022/03/14 09:19:27;;;;;;;;;;;9.10;82.30;;;;;;5049364;28;19929;-73
2022/03/14 09:21:58;;;;;;;;;;;9.10;82.10;;;;;;5049589;28;20619;-72
2022/03/14 09:24:26;;;;;;;;;;;9.20;82.60;;;;;;5048195;28;20024;-72
2022/03/14 09:26:55;;;;;;;;;;;9.20;81.60;;;;;;5047807;28;20396;-72
2022/03/14 09:29:23;;;;;;;;;;;9.20;81.10;;;;;;5046661;28;19968;-73
2022/03/14 09:31:51;;;;;;;;;;;9.30;80.90;;;;;;5043560;28;19936;-71
2022/03/14 09:34:17;;;;;;;;;;;9.30;80.60;;;;;;5044211;28;20375;-72
2022/03/14 09:36:45;;;;;;;;;;;9.30;80.20;;;;;;5048475;28;19951;-72
2022/03/14 09:39:13;;;;;;;;;;;9.30;80.70;;;;;;5047520;28;20355;-72
2022/03/14 09:41:41;;;;;;;;;;;9.40;79.90;;;;;;5048228;28;19932;-72
2022/03/14 09:44:09;;;;;;;;;;;9.40;79.80;;;;;;5040304;28;19932;-72
2022/03/14 09:46:38;;;;;;;;;;;9.40;79.60;;;;;;5049292;28;20011;-73
2022/03/14 09:49:07;;;;;;;;;;;9.40;79.50;;;;;;5050770;28;19979;-72
2022/03/14 09:51:33;;;;;;;;;;;9.40;79.30;;;;;;5046791;28;19936;-72
2022/03/14 09:54:00;;;;;;;;;;;9.50;79.20;;;;;;5047617;28;19929;-72
2022/03/14 09:56:27;;;;;;;;;;;9.50;78.70;;;;;;5046116;28;19925;-73
2022/03/14 09:58:53;;;;;;;;;;;9.60;78.50;;;;;;5048979;28;19933;-72
2022/03/14 10:01:20;;;;;;;;;;;9.60;78.20;;;;;;5047796;28;19931;-72
2022/03/14 10:03:49;;;;;;;;;;;9.70;78.00;;;;;;5047217;28;19925;-72
2022/03/14 10:06:17;;;;;;;;;;;9.80;77.60;;;;;;5050705;28;19939;-72
2022/03/14 10:08:44;;;;;;;;;;;9.80;77.20;;;;;;5046989;28;19932;-72
2022/03/14 10:11:10;;;;;;;;;;;9.90;77.00;;;;;;5048423;28;19931;-72
2022/03/14 10:13:37;;;;;;;;;;;10.00;76.80;;;;;;5047508;28;19935;-72
2022/03/14 10:16:04;;;;;;;;;;;10.10;76.40;;;;;;5049033;28;19929;-73
2022/03/14 10:18:35;;;;;;;;;;;10.20;76.10;;;;;;5045519;28;19933;-72
2022/03/14 10:21:05;;;;;;;;;;;10.20;75.70;;;;;;5044534;28;19929;-72
2022/03/14 10:23:33;;;;;;;;;;;10.30;75.40;;;;;;5051520;28;19933;-72
2022/03/14 10:26:00;;;;;;;;;;;10.40;75.30;;;;;;5048613;28;20068;-72
2022/03/14 10:28:29;;;;;;;;;;;10.40;75.20;;;;;;5046653;28;19936;-72
2022/03/14 10:30:57;;;;;;;;;;;10.40;75.00;;;;;;5047483;28;19950;-70
2022/03/14 10:33:25;;;;;;;;;;;10.50;74.80;;;;;;5047458;28;19929;-71
2022/03/14 10:35:52;;;;;;;;;;;10.50;74.90;;;;;;5049818;28;19932;-71
2022/03/14 10:38:21;;;;;;;;;;;10.50;74.90;;;;;;5046764;28;20028;-72
2022/03/14 10:40:48;;;;;;;;;;;10.50;74.80;;;;;;5049017;28;19932;-72
2022/03/14 10:43:22;;;;;;;;;;;10.50;74.70;;;;;;5045790;28;19933;-72
2022/03/14 10:45:48;;;;;;;;;;;10.50;74.40;;;;;;5049921;28;20362;-73
2022/03/14 10:48:15;;;;;;;;;;;10.50;74.50;;;;;;5045049;28;20558;-72
2022/03/14 10:50:42;;;;;;;;;;;10.50;74.40;;;;;;5042565;28;20570;-72
2022/03/14 10:53:10;;;;;;;;;;;10.50;74.20;;;;;;5046400;28;19928;-72
2022/03/14 10:55:39;;;;;;;;;;;10.50;74.10;;;;;;5050400;28;19940;-72
2022/03/14 10:58:13;;;;;;;;;;;10.50;74.10;;;;;;5045888;28;19941;-72
2022/03/14 11:00:50;;;;;;;;;;;10.50;74.10;;;;;;5049319;28;19929;-72
2022/03/14 11:03:27;;;;;;;;;;;10.50;74.00;;;;;;5048069;28;19925;-72
2022/03/14 11:05:57;;;;;;;;;;;10.50;74.00;;;;;;5041859;28;19933;-72
2022/03/14 11:08:28;;;;;;;;;;;10.60;74.00;;;;;;5046078;28;20020;-72
2022/03/14 11:10:56;;;;;;;;;;;10.60;74.00;;;;;;5048820;28;19933;-67
2022/03/14 11:13:22;;;;;;;;;;;10.60;74.10;;;;;;5049884;28;19932;-66
2022/03/14 11:15:49;;;;;;;;;;;10.60;73.70;;;;;;5048961;28;19932;-68
2022/03/14 11:18:17;;;;;;;;;;;10.60;73.20;;;;;;5047709;28;19935;-66
2022/03/14 11:20:44;;;;;;;;;;;10.70;72.50;;;;;;5047193;28;19936;-67
2022/03/14 11:23:12;;;;;;;;;;;10.80;72.20;;;;;;5045303;28;19932;-66
2022/03/14 11:25:39;;;;;;;;;;;10.80;71.80;;;;;;5046978;28;20307;-67
2022/03/14 11:28:07;;;;;;;;;;;10.90;71.60;;;;;;5044617;28;19935;-67
2022/03/14 11:30:37;;;;;;;;;;;10.90;71.30;;;;;;5045863;28;19944;-66
2022/03/14 11:33:04;;;;;;;;;;;11.00;70.90;;;;;;5043650;28;19929;-67
2022/03/14 11:35:30;;;;;;;;;;;11.00;70.60;;;;;;5046279;28;19952;-67
2022/03/14 11:37:57;;;;;;;;;;;11.10;70.10;;;;;;5046497;28;19925;-67
2022/03/14 11:40:24;;;;;;;;;;;11.20;69.70;;;;;;5043209;28;19933;-66
2022/03/14 11:42:51;;;;;;;;;;;11.20;69.60;;;;;;5046294;28;19956;-66
2022/03/14 11:45:18;;;;;;;;;;;11.30;69.60;;;;;;5047313;28;19924;-67
2022/03/14 11:47:46;;;;;;;;;;;11.30;69.30;;;;;;5045964;28;20003;-68
2022/03/14 11:50:14;;;;;;;;;;;11.40;69.70;;;;;;5041921;28;19929;-67
2022/03/14 11:52:42;;;;;;;;;;;11.40;68.80;;;;;;5050470;28;20636;-67
2022/03/14 11:55:18;;;;;;;;;;;11.50;68.50;;;;;;5044842;28;19936;-67
2022/03/14 11:57:45;;;;;;;;;;;11.60;68.10;;;;;;5048362;28;19925;-67
2022/03/14 12:00:32;;;;;;;;;;;11.60;68.30;;;;;;5045787;28;19925;-67
2022/03/14 12:03:01;;;;;;;;;;;11.60;67.70;;;;;;5043588;28;19968;-73
2022/03/14 12:05:43;;;;;;;;;;;11.60;67.80;;;;;;5049210;28;19932;-72
2022/03/14 12:08:30;;;;;;;;;;;11.70;67.90;;;;;;5049767;28;19929;-71
2022/03/14 12:11:16;;;;;;;;;;;11.60;67.90;;;;;;5051082;28;20456;-71
2022/03/14 12:13:43;;;;;;;;;;;11.70;68.00;;;;;;5053945;28;19928;-71
2022/03/14 12:16:25;;;;;;;;;;;11.60;67.80;;;;;;5046560;28;20584;-71
2022/03/14 12:18:58;;;;;;;;;;;11.70;67.80;;;;;;5042318;28;19929;-71
2022/03/14 12:21:43;;;;;;;;;;;11.70;68.00;;;;;;5048165;28;20130;-71
2022/03/14 12:24:18;;;;;;;;;;;11.70;67.70;;;;;;5043508;28;19928;-71
2022/03/14 12:26:45;;;;;;;;;;;11.70;67.70;;;;;;5045900;28;20376;-72
2022/03/14 12:29:26;;;;;;;;;;;11.70;67.60;;;;;;5041843;28;20282;-71
2022/03/14 12:32:07;;;;;;;;;;;11.60;67.40;;;;;;5042345;28;19936;-71
2022/03/14 12:34:35;;;;;;;;;;;11.60;67.20;;;;;;5046163;28;20015;-71
2022/03/14 12:37:06;;;;;;;;;;;11.60;67.90;;;;;;5041278;28;20450;-71
2022/03/14 12:39:36;;;;;;;;;;;11.60;67.20;;;;;;5041836;28;20381;-71
2022/03/14 12:42:22;;;;;;;;;;;11.60;67.20;;;;;;5040199;28;20493;-71
2022/03/14 12:45:04;;;;;;;;;;;11.60;67.10;;;;;;5041493;28;20122;-72
2022/03/14 12:47:30;;;;;;;;;;;11.60;66.80;;;;;;5041458;28;20737;-71
2022/03/14 12:49:58;;;;;;;;;;;11.70;66.80;;;;;;5042196;28;19933;-71
2022/03/14 12:52:26;;;;;;;;;;;11.70;66.90;;;;;;5044105;28;20491;-71
2022/03/14 12:54:55;;;;;;;;;;;11.70;66.80;;;;;;5047104;28;21460;-71
2022/03/14 12:57:23;;;;;;;;;;;11.80;66.80;;;;;;5046866;28;19929;-71
2022/03/14 12:59:58;;;;;;;;;;;11.70;66.60;;;;;;5046194;28;20453;-72
2022/03/14 13:02:25;;;;;;;;;;;11.80;66.50;;;;;;5045362;28;19952;-72
2022/03/14 13:05:03;;;;;;;;;;;11.80;66.40;;;;;;5045311;28;20075;-66
2022/03/14 13:07:32;;;;;;;;;;;11.80;66.20;;;;;;5040480;28;19929;-67
2022/03/14 13:10:00;;;;;;;;;;;12.10;64.20;;;;;;5047529;28;19995;-67
2022/03/14 13:12:29;;;;;;;;;;;12.30;63.10;;;;;;5048068;28;19940;-67
2022/03/14 13:15:02;;;;;;;;;;;12.50;62.50;;;;;;5052994;28;19933;-67
2022/03/14 13:17:29;;;;;;;;;;;12.70;61.80;;;;;;5046292;28;19929;-67
2022/03/14 13:19:55;;;;;;;;;;;13.00;61.30;;;;;;5044092;28;19933;-67
2022/03/14 13:22:23;;;;;;;;;;;13.10;60.50;;;;;;5048443;28;20012;-67
2022/03/14 13:24:53;;;;;;;;;;;13.20;59.90;;;;;;5042671;28;19940;-67
2022/03/14 13:27:23;;;;;;;;;;;13.40;59.70;;;;;;5045226;28;20019;-68
2022/03/14 13:29:49;;;;;;;;;;;13.50;59.50;;;;;;5047523;28;20407;-67
2022/03/14 13:32:17;;;;;;;;;;;13.60;59.20;;;;;;5043478;28;19928;-67
2022/03/14 13:34:45;;;;;;;;;;;13.70;59.20;;;;;;5042399;28;19931;-67
2022/03/14 13:37:11;;;;;;;;;;;13.70;59.00;;;;;;5042578;28;20391;-67
2022/03/14 13:39:41;;;;;;;;;;;13.80;59.00;;;;;;5044028;28;20408;-68
2022/03/14 13:42:07;;;;;;;;;;;13.90;59.00;;;;;;5045557;28;19936;-67
2022/03/14 13:44:34;;;;;;;;;;;14.00;58.60;;;;;;5046807;28;19932;-67
2022/03/14 13:47:02;;;;;;;;;;;14.00;58.00;;;;;;5049076;28;20027;-67
2022/03/14 13:49:29;;;;;;;;;;;14.10;58.30;;;;;;5044490;28;20538;-67
2022/03/14 13:51:56;;;;;;;;;;;14.10;57.70;;;;;;5049118;28;19940;-67
2022/03/14 13:54:24;;;;;;;;;;;14.20;57.70;;;;;;5047746;28;19928;-67
2022/03/14 13:56:52;;;;;;;;;;;14.20;57.80;;;;;;5053863;28;19928;-67
2022/03/14 13:59:26;;;;;;;;;;;14.20;57.60;;;;;;5054648;28;19933;-67
2022/03/14 14:01:53;;;;;;;;;;;14.20;57.60;;;;;;5052459;28;19936;-68
2022/03/14 14:04:24;;;;;;;;;;;14.30;57.50;;;;;;5050039;28;20252;-67
2022/03/14 14:06:51;;;;;;;;;;;14.30;57.30;;;;;;5055790;28;19929;-67
2022/03/14 14:09:19;;;;;;;;;;;14.40;56.90;;;;;;5051787;28;19947;-68
2022/03/14 14:11:57;;;;;;;;;;;14.50;56.90;;;;;;5050747;28;20396;-68
2022/03/14 14:14:25;;;;;;;;;;;14.50;56.80;;;;;;5050694;28;19928;-67
2022/03/14 14:16:51;;;;;;;;;;;14.60;56.40;;;;;;5050606;28;19978;-68
2022/03/14 14:19:18;;;;;;;;;;;14.70;56.30;;;;;;5045110;28;19939;-68
2022/03/14 14:21:54;;;;;;;;;;;14.80;56.40;;;;;;5052428;28;19924;-68
2022/03/14 14:24:22;;;;;;;;;;;14.80;56.30;;;;;;5050635;28;20392;-68
2022/03/14 14:26:48;;;;;;;;;;;14.90;56.10;;;;;;5049611;28;19943;-68